sensor_id;sensor_type;location;lat;lon;timestamp;P1;durP1;ratioP1;P2;durP2;ratioP2
10637;SDS011;47007;49.252;8.904;2023-04-01T00:00:20;1.60;;;0.15;;
10637;SDS011;47007;49.252;8.904;2023-04-01T00:01:03;2.28;;;0.20;;
10637;SDS011;47007;49.252;8.904;2023-04-01T00:01:46;1.65;;;0.38;;
10637;SDS011;47007;49.252;8.904;2023-04-01T00:02:27;0.85;;;0.17;;
10637;SDS011;47007;49.252;8.904;2023-04-01T00:03:09;1.40;;;0.20;;
10637;SDS011;47007;49.252;8.904;2023-04-01T00:03:51;1.63;;;0.20;;
10637;SDS011;47007;49.252;8.904;2023-04-01T00:04:33;1.15;;;0.20;;
10637;SDS011;47007;49.252;8.904;2023-04-01T00:05:15;1.52;;;0.28;;
10637;SDS011;47007;49.252;8.904;2023-04-01T00:05:58;1.45;;;0.20;;
10637;SDS011;47007;49.252;8.904;2023-04-01T00:06:40;1.23;;;0.20;;
10637;SDS011;47007;49.252;8.904;2023-04-01T00:07:21;1.33;;;0.40;;
10637;SDS011;47007;49.252;8.904;2023-04-01T00:08:03;1.88;;;0.20;;
10637;SDS011;47007;49.252;8.904;2023-04-01T00:08:45;1.42;;;0.30;;
10637;SDS011;47007;49.252;8.904;2023-04-01T00:09:27;1.63;;;0.20;;
10637;SDS011;47007;49.252;8.904;2023-04-01T00:10:11;1.95;;;0.25;;
10637;SDS011;47007;49.252;8.904;2023-04-01T00:10:53;2.03;;;0.20;;
10637;SDS011;47007;49.252;8.904;2023-04-01T00:11:35;1.45;;;0.38;;
10637;SDS011;47007;49.252;8.904;2023-04-01T00:12:17;1.08;;;0.15;;
10637;SDS011;47007;49.252;8.904;2023-04-01T00:12:58;0.77;;;0.20;;
10637;SDS011;47007;49.252;8.904;2023-04-01T00:13:40;0.63;;;0.20;;
10637;SDS011;47007;49.252;8.904;2023-04-01T00:14:23;0.43;;;0.10;;
10637;SDS011;47007;49.252;8.904;2023-04-01T00:15:05;1.20;;;0.20;;
10637;SDS011;47007;49.252;8.904;2023-04-01T00:15:50;1.10;;;0.20;;
10637;SDS011;47007;49.252;8.904;2023-04-01T00:16:31;1.02;;;0.10;;
10637;SDS011;47007;49.252;8.904;2023-04-01T00:17:13;1.33;;;0.15;;
10637;SDS011;47007;49.252;8.904;2023-04-01T00:17:55;1.25;;;0.20;;
10637;SDS011;47007;49.252;8.904;2023-04-01T00:18:37;2.15;;;0.40;;
10637;SDS011;47007;49.252;8.904;2023-04-01T00:19:19;0.93;;;0.20;;
10637;SDS011;47007;49.252;8.904;2023-04-01T00:20:01;1.08;;;0.30;;
10637;SDS011;47007;49.252;8.904;2023-04-01T00:20:47;0.95;;;0.17;;
10637;SDS011;47007;49.252;8.904;2023-04-01T00:21:30;1.23;;;0.20;;
10637;SDS011;47007;49.252;8.904;2023-04-01T00:22:12;1.10;;;0.20;;
10637;SDS011;47007;49.252;8.904;2023-04-01T00:22:54;2.22;;;0.47;;
10637;SDS011;47007;49.252;8.904;2023-04-01T00:23:36;1.60;;;0.82;;
10637;SDS011;47007;49.252;8.904;2023-04-01T00:24:18;2.10;;;1.02;;
10637;SDS011;47007;49.252;8.904;2023-04-01T00:25:00;1.98;;;0.55;;
10637;SDS011;47007;49.252;8.904;2023-04-01T00:25:42;2.30;;;0.90;;
10637;SDS011;47007;49.252;8.904;2023-04-01T00:26:23;5.47;;;3.85;;
10637;SDS011;47007;49.252;8.904;2023-04-01T00:27:06;4.05;;;1.83;;
10637;SDS011;47007;49.252;8.904;2023-04-01T00:27:49;9.68;;;6.00;;
10637;SDS011;47007;49.252;8.904;2023-04-01T00:28:31;2.58;;;1.20;;
10637;SDS011;47007;49.252;8.904;2023-04-01T00:29:15;2.67;;;1.60;;
10637;SDS011;47007;49.252;8.904;2023-04-01T00:29:57;7.05;;;4.57;;
10637;SDS011;47007;49.252;8.904;2023-04-01T00:30:39;2.35;;;1.60;;
10637;SDS011;47007;49.252;8.904;2023-04-01T00:31:20;2.25;;;1.33;;
10637;SDS011;47007;49.252;8.904;2023-04-01T00:32:02;6.18;;;3.55;;
10637;SDS011;47007;49.252;8.904;2023-04-01T00:32:44;6.88;;;5.45;;
10637;SDS011;47007;49.252;8.904;2023-04-01T00:33:26;2.40;;;1.50;;
10637;SDS011;47007;49.252;8.904;2023-04-01T00:34:08;2.65;;;1.73;;
10637;SDS011;47007;49.252;8.904;2023-04-01T00:34:50;2.28;;;0.70;;
10637;SDS011;47007;49.252;8.904;2023-04-01T00:35:33;11.10;;;7.75;;
10637;SDS011;47007;49.252;8.904;2023-04-01T00:36:16;6.95;;;3.75;;
10637;SDS011;47007;49.252;8.904;2023-04-01T00:37:00;3.70;;;0.90;;
10637;SDS011;47007;49.252;8.904;2023-04-01T00:37:41;3.45;;;1.63;;
10637;SDS011;47007;49.252;8.904;2023-04-01T00:38:23;3.15;;;1.23;;
10637;SDS011;47007;49.252;8.904;2023-04-01T00:39:05;7.72;;;3.20;;
10637;SDS011;47007;49.252;8.904;2023-04-01T00:39:46;3.08;;;1.88;;
10637;SDS011;47007;49.252;8.904;2023-04-01T00:40:33;2.65;;;0.95;;
10637;SDS011;47007;49.252;8.904;2023-04-01T00:41:18;1.85;;;0.40;;
10637;SDS011;47007;49.252;8.904;2023-04-01T00:42:01;1.63;;;0.38;;
10637;SDS011;47007;49.252;8.904;2023-04-01T00:42:43;4.70;;;1.30;;
10637;SDS011;47007;49.252;8.904;2023-04-01T00:43:28;3.30;;;1.08;;
10637;SDS011;47007;49.252;8.904;2023-04-01T00:46:08;6.07;;;4.13;;
10637;SDS011;47007;49.252;8.904;2023-04-01T00:46:50;5.43;;;3.33;;
10637;SDS011;47007;49.252;8.904;2023-04-01T00:47:34;3.10;;;1.52;;
10637;SDS011;47007;49.252;8.904;2023-04-01T00:48:16;5.95;;;3.97;;
10637;SDS011;47007;49.252;8.904;2023-04-01T00:49:02;5.10;;;2.05;;
10637;SDS011;47007;49.252;8.904;2023-04-01T00:49:45;9.85;;;6.13;;
10637;SDS011;47007;49.252;8.904;2023-04-01T00:50:29;3.10;;;2.13;;
10637;SDS011;47007;49.252;8.904;2023-04-01T00:51:23;2.78;;;1.40;;
10637;SDS011;47007;49.252;8.904;2023-04-01T00:52:11;1.38;;;0.28;;
10637;SDS011;47007;49.252;8.904;2023-04-01T00:52:57;3.33;;;1.80;;
10637;SDS011;47007;49.252;8.904;2023-04-01T00:53:44;5.80;;;3.13;;
10637;SDS011;47007;49.252;8.904;2023-04-01T00:54:30;7.53;;;5.07;;
10637;SDS011;47007;49.252;8.904;2023-04-01T00:55:13;6.95;;;3.97;;
10637;SDS011;47007;49.252;8.904;2023-04-01T00:56:02;4.05;;;2.60;;
10637;SDS011;47007;49.252;8.904;2023-04-01T00:56:50;3.28;;;2.10;;
10637;SDS011;47007;49.252;8.904;2023-04-01T00:57:37;2.90;;;1.90;;
10637;SDS011;47007;49.252;8.904;2023-04-01T00:58:23;4.53;;;2.25;;
10637;SDS011;47007;49.252;8.904;2023-04-01T00:59:13;1.58;;;0.98;;
10637;SDS011;47007;49.252;8.904;2023-04-01T00:59:57;3.03;;;1.00;;
10637;SDS011;47007;49.252;8.904;2023-04-01T01:00:39;4.55;;;3.88;;
10637;SDS011;47007;49.252;8.904;2023-04-01T01:01:21;4.80;;;3.40;;
10637;SDS011;47007;49.252;8.904;2023-04-01T01:02:05;4.13;;;2.75;;
10637;SDS011;47007;49.252;8.904;2023-04-01T01:02:49;4.07;;;2.42;;
10637;SDS011;47007;49.252;8.904;2023-04-01T01:03:32;2.00;;;1.00;;
10637;SDS011;47007;49.252;8.904;2023-04-01T01:04:22;1.58;;;0.40;;
10637;SDS011;47007;49.252;8.904;2023-04-01T01:05:06;1.20;;;0.20;;
10637;SDS011;47007;49.252;8.904;2023-04-01T01:06:55;2.90;;;0.50;;
10637;SDS011;47007;49.252;8.904;2023-04-01T01:07:57;2.28;;;0.30;;
10637;SDS011;47007;49.252;8.904;2023-04-01T01:09:17;1.70;;;0.30;;
10637;SDS011;47007;49.252;8.904;2023-04-01T01:11:19;5.25;;;0.40;;
10637;SDS011;47007;49.252;8.904;2023-04-01T01:13:31;1.05;;;0.20;;
10637;SDS011;47007;49.252;8.904;2023-04-01T01:16:44;1.85;;;0.20;;
10637;SDS011;47007;49.252;8.904;2023-04-01T01:17:44;1.95;;;0.25;;
10637;SDS011;47007;49.252;8.904;2023-04-01T01:20:31;1.05;;;0.20;;
10637;SDS011;47007;49.252;8.904;2023-04-01T01:23:37;1.60;;;0.20;;
10637;SDS011;47007;49.252;8.904;2023-04-01T01:24:31;1.98;;;0.35;;
10637;SDS011;47007;49.252;8.904;2023-04-01T01:25:40;2.38;;;0.50;;
10637;SDS011;47007;49.252;8.904;2023-04-01T01:28:15;1.55;;;0.20;;
10637;SDS011;47007;49.252;8.904;2023-04-01T01:30:50;1.88;;;0.30;;
10637;SDS011;47007;49.252;8.904;2023-04-01T01:35:20;1.73;;;0.30;;
10637;SDS011;47007;49.252;8.904;2023-04-01T01:36:04;2.35;;;0.20;;
10637;SDS011;47007;49.252;8.904;2023-04-01T01:36:55;1.25;;;0.20;;
10637;SDS011;47007;49.252;8.904;2023-04-01T01:37:40;2.78;;;0.40;;
10637;SDS011;47007;49.252;8.904;2023-04-01T01:38:26;0.70;;;0.28;;
10637;SDS011;47007;49.252;8.904;2023-04-01T01:39:14;1.65;;;0.20;;
10637;SDS011;47007;49.252;8.904;2023-04-01T01:39:58;2.55;;;0.30;;
10637;SDS011;47007;49.252;8.904;2023-04-01T01:40:46;2.50;;;0.35;;
10637;SDS011;47007;49.252;8.904;2023-04-01T01:41:33;2.22;;;0.20;;
10637;SDS011;47007;49.252;8.904;2023-04-01T01:42:18;1.88;;;0.20;;
10637;SDS011;47007;49.252;8.904;2023-04-01T01:43:05;0.98;;;0.20;;
10637;SDS011;47007;49.252;8.904;2023-04-01T01:43:51;2.17;;;0.25;;
10637;SDS011;47007;49.252;8.904;2023-04-01T01:44:35;2.17;;;0.30;;
10637;SDS011;47007;49.252;8.904;2023-04-01T01:45:20;2.03;;;0.30;;
10637;SDS011;47007;49.252;8.904;2023-04-01T01:46:06;2.55;;;0.50;;
10637;SDS011;47007;49.252;8.904;2023-04-01T01:46:57;0.68;;;0.20;;
10637;SDS011;47007;49.252;8.904;2023-04-01T01:47:40;0.60;;;0.20;;
10637;SDS011;47007;49.252;8.904;2023-04-01T01:48:25;1.50;;;0.20;;
10637;SDS011;47007;49.252;8.904;2023-04-01T01:49:10;1.92;;;0.40;;
10637;SDS011;47007;49.252;8.904;2023-04-01T01:49:54;1.58;;;0.30;;
10637;SDS011;47007;49.252;8.904;2023-04-01T01:50:37;1.77;;;0.40;;
10637;SDS011;47007;49.252;8.904;2023-04-01T01:51:23;1.40;;;0.20;;
10637;SDS011;47007;49.252;8.904;2023-04-01T01:52:05;1.60;;;0.30;;
10637;SDS011;47007;49.252;8.904;2023-04-01T01:52:47;1.58;;;0.20;;
10637;SDS011;47007;49.252;8.904;2023-04-01T01:53:29;4.15;;;0.40;;
10637;SDS011;47007;49.252;8.904;2023-04-01T01:54:11;1.48;;;0.43;;
10637;SDS011;47007;49.252;8.904;2023-04-01T01:54:58;2.13;;;0.40;;
10637;SDS011;47007;49.252;8.904;2023-04-01T01:55:46;3.20;;;0.30;;
10637;SDS011;47007;49.252;8.904;2023-04-01T01:56:30;2.10;;;0.28;;
10637;SDS011;47007;49.252;8.904;2023-04-01T01:57:13;1.42;;;0.20;;
10637;SDS011;47007;49.252;8.904;2023-04-01T01:59:03;2.47;;;0.30;;
10637;SDS011;47007;49.252;8.904;2023-04-01T01:59:49;1.85;;;0.32;;
10637;SDS011;47007;49.252;8.904;2023-04-01T02:00:41;2.80;;;0.30;;
10637;SDS011;47007;49.252;8.904;2023-04-01T02:01:27;2.13;;;0.30;;
10637;SDS011;47007;49.252;8.904;2023-04-01T02:02:22;1.65;;;0.40;;
10637;SDS011;47007;49.252;8.904;2023-04-01T02:03:07;3.58;;;0.40;;
10637;SDS011;47007;49.252;8.904;2023-04-01T02:03:49;1.77;;;0.40;;
10637;SDS011;47007;49.252;8.904;2023-04-01T02:04:37;0.75;;;0.20;;
10637;SDS011;47007;49.252;8.904;2023-04-01T02:05:24;2.25;;;0.50;;
10637;SDS011;47007;49.252;8.904;2023-04-01T02:06:15;0.55;;;0.20;;
10637;SDS011;47007;49.252;8.904;2023-04-01T02:07:02;1.50;;;0.28;;
10637;SDS011;47007;49.252;8.904;2023-04-01T02:07:49;2.35;;;0.30;;
10637;SDS011;47007;49.252;8.904;2023-04-01T02:09:10;1.92;;;0.38;;
10637;SDS011;47007;49.252;8.904;2023-04-01T02:09:48;0.98;;;0.28;;
10637;SDS011;47007;49.252;8.904;2023-04-01T02:10:33;3.17;;;0.30;;
10637;SDS011;47007;49.252;8.904;2023-04-01T02:11:19;2.13;;;0.30;;
10637;SDS011;47007;49.252;8.904;2023-04-01T02:12:10;2.53;;;0.20;;
10637;SDS011;47007;49.252;8.904;2023-04-01T02:12:57;2.13;;;0.25;;
10637;SDS011;47007;49.252;8.904;2023-04-01T02:13:50;1.60;;;0.20;;
10637;SDS011;47007;49.252;8.904;2023-04-01T02:14:38;0.98;;;0.45;;
10637;SDS011;47007;49.252;8.904;2023-04-01T02:15:23;1.08;;;0.20;;
10637;SDS011;47007;49.252;8.904;2023-04-01T02:16:16;1.75;;;0.30;;
10637;SDS011;47007;49.252;8.904;2023-04-01T02:17:07;1.50;;;0.30;;
10637;SDS011;47007;49.252;8.904;2023-04-01T02:17:52;2.20;;;0.68;;
10637;SDS011;47007;49.252;8.904;2023-04-01T02:18:36;1.52;;;0.13;;
10637;SDS011;47007;49.252;8.904;2023-04-01T02:19:20;2.15;;;0.20;;
10637;SDS011;47007;49.252;8.904;2023-04-01T02:20:08;0.50;;;0.13;;
10637;SDS011;47007;49.252;8.904;2023-04-01T02:20:57;1.33;;;0.40;;
10637;SDS011;47007;49.252;8.904;2023-04-01T02:21:41;0.63;;;0.30;;
10637;SDS011;47007;49.252;8.904;2023-04-01T02:22:25;1.38;;;0.20;;
10637;SDS011;47007;49.252;8.904;2023-04-01T02:23:09;2.28;;;0.30;;
10637;SDS011;47007;49.252;8.904;2023-04-01T02:23:52;1.77;;;0.20;;
10637;SDS011;47007;49.252;8.904;2023-04-01T02:24:36;1.60;;;0.30;;
10637;SDS011;47007;49.252;8.904;2023-04-01T02:25:25;1.65;;;0.25;;
10637;SDS011;47007;49.252;8.904;2023-04-01T02:26:09;2.42;;;0.30;;
10637;SDS011;47007;49.252;8.904;2023-04-01T02:26:53;0.85;;;0.20;;
10637;SDS011;47007;49.252;8.904;2023-04-01T02:27:35;1.30;;;0.40;;
10637;SDS011;47007;49.252;8.904;2023-04-01T02:28:17;3.28;;;0.30;;
10637;SDS011;47007;49.252;8.904;2023-04-01T02:29:02;1.73;;;0.20;;
10637;SDS011;47007;49.252;8.904;2023-04-01T02:29:46;0.98;;;0.20;;
10637;SDS011;47007;49.252;8.904;2023-04-01T02:30:29;2.95;;;0.20;;
10637;SDS011;47007;49.252;8.904;2023-04-01T02:31:13;2.22;;;0.20;;
10637;SDS011;47007;49.252;8.904;2023-04-01T02:31:56;0.73;;;0.22;;
10637;SDS011;47007;49.252;8.904;2023-04-01T02:32:39;1.58;;;0.20;;
10637;SDS011;47007;49.252;8.904;2023-04-01T02:33:22;1.63;;;0.20;;
10637;SDS011;47007;49.252;8.904;2023-04-01T02:34:04;1.45;;;0.20;;
10637;SDS011;47007;49.252;8.904;2023-04-01T02:34:46;1.13;;;0.20;;
10637;SDS011;47007;49.252;8.904;2023-04-01T02:35:28;1.95;;;0.22;;
10637;SDS011;47007;49.252;8.904;2023-04-01T02:36:12;1.70;;;0.20;;
10637;SDS011;47007;49.252;8.904;2023-04-01T02:36:56;1.42;;;0.30;;
10637;SDS011;47007;49.252;8.904;2023-04-01T02:37:39;0.52;;;0.10;;
10637;SDS011;47007;49.252;8.904;2023-04-01T02:38:23;0.90;;;0.30;;
10637;SDS011;47007;49.252;8.904;2023-04-01T02:39:05;1.48;;;0.17;;
10637;SDS011;47007;49.252;8.904;2023-04-01T02:39:48;0.55;;;0.20;;
10637;SDS011;47007;49.252;8.904;2023-04-01T02:40:40;0.88;;;0.10;;
10637;SDS011;47007;49.252;8.904;2023-04-01T02:41:29;0.68;;;0.15;;
10637;SDS011;47007;49.252;8.904;2023-04-01T02:42:12;0.63;;;0.20;;
10637;SDS011;47007;49.252;8.904;2023-04-01T02:42:54;1.52;;;0.20;;
10637;SDS011;47007;49.252;8.904;2023-04-01T02:43:36;1.45;;;0.20;;
10637;SDS011;47007;49.252;8.904;2023-04-01T02:44:18;1.50;;;0.20;;
10637;SDS011;47007;49.252;8.904;2023-04-01T02:45:00;1.15;;;0.20;;
10637;SDS011;47007;49.252;8.904;2023-04-01T02:45:42;1.92;;;0.40;;
10637;SDS011;47007;49.252;8.904;2023-04-01T02:46:25;2.15;;;0.28;;
10637;SDS011;47007;49.252;8.904;2023-04-01T02:47:06;1.60;;;0.50;;
10637;SDS011;47007;49.252;8.904;2023-04-01T02:47:49;1.65;;;0.60;;
10637;SDS011;47007;49.252;8.904;2023-04-01T02:48:31;0.70;;;0.63;;
10637;SDS011;47007;49.252;8.904;2023-04-01T02:49:13;2.15;;;0.77;;
10637;SDS011;47007;49.252;8.904;2023-04-01T02:49:54;0.82;;;0.40;;
10637;SDS011;47007;49.252;8.904;2023-04-01T02:50:40;1.38;;;0.40;;
10637;SDS011;47007;49.252;8.904;2023-04-01T02:51:22;1.77;;;0.50;;
10637;SDS011;47007;49.252;8.904;2023-04-01T02:52:03;0.60;;;0.40;;
10637;SDS011;47007;49.252;8.904;2023-04-01T02:52:45;1.02;;;0.30;;
10637;SDS011;47007;49.252;8.904;2023-04-01T02:53:27;1.35;;;0.60;;
10637;SDS011;47007;49.252;8.904;2023-04-01T02:54:09;1.15;;;0.40;;
10637;SDS011;47007;49.252;8.904;2023-04-01T02:54:51;0.80;;;0.20;;
10637;SDS011;47007;49.252;8.904;2023-04-01T02:55:33;0.85;;;0.40;;
10637;SDS011;47007;49.252;8.904;2023-04-01T02:56:16;1.70;;;0.50;;
10637;SDS011;47007;49.252;8.904;2023-04-01T02:56:58;1.15;;;0.20;;
10637;SDS011;47007;49.252;8.904;2023-04-01T02:57:39;1.25;;;0.30;;
10637;SDS011;47007;49.252;8.904;2023-04-01T02:58:21;0.43;;;0.17;;
10637;SDS011;47007;49.252;8.904;2023-04-01T02:59:03;2.00;;;0.25;;
10637;SDS011;47007;49.252;8.904;2023-04-01T02:59:45;0.73;;;0.30;;
10637;SDS011;47007;49.252;8.904;2023-04-01T03:00:27;0.60;;;0.40;;
10637;SDS011;47007;49.252;8.904;2023-04-01T03:01:08;1.73;;;0.28;;
10637;SDS011;47007;49.252;8.904;2023-04-01T03:01:50;0.50;;;0.30;;
10637;SDS011;47007;49.252;8.904;2023-04-01T03:02:32;2.35;;;0.60;;
10637;SDS011;47007;49.252;8.904;2023-04-01T03:03:14;0.22;;;0.20;;
10637;SDS011;47007;49.252;8.904;2023-04-01T03:03:55;1.90;;;0.50;;
10637;SDS011;47007;49.252;8.904;2023-04-01T03:04:37;1.52;;;0.20;;
10637;SDS011;47007;49.252;8.904;2023-04-01T03:05:19;0.60;;;0.30;;
10637;SDS011;47007;49.252;8.904;2023-04-01T03:06:08;1.35;;;0.30;;
10637;SDS011;47007;49.252;8.904;2023-04-01T03:06:52;1.90;;;0.38;;
10637;SDS011;47007;49.252;8.904;2023-04-01T03:07:33;1.05;;;0.25;;
10637;SDS011;47007;49.252;8.904;2023-04-01T03:08:15;1.65;;;0.43;;
10637;SDS011;47007;49.252;8.904;2023-04-01T03:08:57;0.70;;;0.32;;
10637;SDS011;47007;49.252;8.904;2023-04-01T03:09:40;1.27;;;0.40;;
10637;SDS011;47007;49.252;8.904;2023-04-01T03:10:22;1.00;;;0.22;;
10637;SDS011;47007;49.252;8.904;2023-04-01T03:11:04;1.05;;;0.30;;
10637;SDS011;47007;49.252;8.904;2023-04-01T03:11:50;0.73;;;0.30;;
10637;SDS011;47007;49.252;8.904;2023-04-01T03:12:31;1.27;;;0.28;;
10637;SDS011;47007;49.252;8.904;2023-04-01T03:13:13;0.50;;;0.28;;
10637;SDS011;47007;49.252;8.904;2023-04-01T03:13:55;1.65;;;0.40;;
10637;SDS011;47007;49.252;8.904;2023-04-01T03:14:37;0.38;;;0.10;;
10637;SDS011;47007;49.252;8.904;2023-04-01T03:15:18;0.55;;;0.25;;
10637;SDS011;47007;49.252;8.904;2023-04-01T03:16:00;1.40;;;0.60;;
10637;SDS011;47007;49.252;8.904;2023-04-01T03:16:42;1.23;;;0.20;;
10637;SDS011;47007;49.252;8.904;2023-04-01T03:17:24;0.75;;;0.10;;
10637;SDS011;47007;49.252;8.904;2023-04-01T03:18:07;0.77;;;0.30;;
10637;SDS011;47007;49.252;8.904;2023-04-01T03:18:49;1.33;;;0.60;;
10637;SDS011;47007;49.252;8.904;2023-04-01T03:19:31;0.82;;;0.30;;
10637;SDS011;47007;49.252;8.904;2023-04-01T03:20:19;3.00;;;0.30;;
10637;SDS011;47007;49.252;8.904;2023-04-01T03:21:17;1.52;;;0.47;;
10637;SDS011;47007;49.252;8.904;2023-04-01T03:22:01;1.63;;;0.35;;
10637;SDS011;47007;49.252;8.904;2023-04-01T03:22:43;1.38;;;0.35;;
10637;SDS011;47007;49.252;8.904;2023-04-01T03:23:25;1.25;;;0.30;;
10637;SDS011;47007;49.252;8.904;2023-04-01T03:24:06;3.05;;;0.50;;
10637;SDS011;47007;49.252;8.904;2023-04-01T03:24:51;0.50;;;0.30;;
10637;SDS011;47007;49.252;8.904;2023-04-01T03:25:32;1.38;;;0.40;;
10637;SDS011;47007;49.252;8.904;2023-04-01T03:26:15;1.58;;;0.40;;
10637;SDS011;47007;49.252;8.904;2023-04-01T03:26:57;2.30;;;0.35;;
10637;SDS011;47007;49.252;8.904;2023-04-01T03:27:39;1.63;;;0.50;;
10637;SDS011;47007;49.252;8.904;2023-04-01T03:28:22;1.35;;;0.80;;
10637;SDS011;47007;49.252;8.904;2023-04-01T03:29:04;4.68;;;2.03;;
10637;SDS011;47007;49.252;8.904;2023-04-01T03:29:46;3.85;;;1.98;;
10637;SDS011;47007;49.252;8.904;2023-04-01T03:30:28;2.35;;;0.90;;
10637;SDS011;47007;49.252;8.904;2023-04-01T03:31:12;2.63;;;1.17;;
10637;SDS011;47007;49.252;8.904;2023-04-01T03:32:01;9.82;;;5.53;;
10637;SDS011;47007;49.252;8.904;2023-04-01T03:32:43;6.88;;;3.88;;
10637;SDS011;47007;49.252;8.904;2023-04-01T03:33:25;3.00;;;2.25;;
10637;SDS011;47007;49.252;8.904;2023-04-01T03:34:07;4.35;;;1.77;;
10637;SDS011;47007;49.252;8.904;2023-04-01T03:34:49;1.30;;;0.47;;
10637;SDS011;47007;49.252;8.904;2023-04-01T03:35:30;2.17;;;0.30;;
10637;SDS011;47007;49.252;8.904;2023-04-01T03:36:13;1.05;;;0.20;;
10637;SDS011;47007;49.252;8.904;2023-04-01T03:36:55;1.15;;;0.13;;
10637;SDS011;47007;49.252;8.904;2023-04-01T03:37:37;0.98;;;0.20;;
10637;SDS011;47007;49.252;8.904;2023-04-01T03:38:19;1.70;;;0.20;;
10637;SDS011;47007;49.252;8.904;2023-04-01T03:39:01;0.30;;;0.10;;
10637;SDS011;47007;49.252;8.904;2023-04-01T03:39:50;1.00;;;0.20;;
10637;SDS011;47007;49.252;8.904;2023-04-01T03:40:32;0.70;;;0.10;;
10637;SDS011;47007;49.252;8.904;2023-04-01T03:41:15;0.57;;;0.10;;
10637;SDS011;47007;49.252;8.904;2023-04-01T03:41:58;0.75;;;0.30;;
10637;SDS011;47007;49.252;8.904;2023-04-01T03:42:40;1.30;;;0.15;;
10637;SDS011;47007;49.252;8.904;2023-04-01T03:43:22;0.43;;;0.08;;
10637;SDS011;47007;49.252;8.904;2023-04-01T03:44:04;0.95;;;0.10;;
10637;SDS011;47007;49.252;8.904;2023-04-01T03:44:48;0.60;;;0.10;;
10637;SDS011;47007;49.252;8.904;2023-04-01T03:45:30;0.88;;;0.10;;
10637;SDS011;47007;49.252;8.904;2023-04-01T03:46:16;1.48;;;0.10;;
10637;SDS011;47007;49.252;8.904;2023-04-01T03:47:00;1.15;;;0.10;;
10637;SDS011;47007;49.252;8.904;2023-04-01T03:47:42;0.55;;;0.20;;
10637;SDS011;47007;49.252;8.904;2023-04-01T03:48:25;0.75;;;0.10;;
10637;SDS011;47007;49.252;8.904;2023-04-01T03:49:08;0.63;;;0.30;;
10637;SDS011;47007;49.252;8.904;2023-04-01T03:49:53;0.95;;;0.28;;
10637;SDS011;47007;49.252;8.904;2023-04-01T03:50:34;0.75;;;0.17;;
10637;SDS011;47007;49.252;8.904;2023-04-01T03:51:16;1.30;;;0.17;;
10637;SDS011;47007;49.252;8.904;2023-04-01T03:51:58;0.10;;;0.10;;
10637;SDS011;47007;49.252;8.904;2023-04-01T03:52:40;2.15;;;0.20;;
10637;SDS011;47007;49.252;8.904;2023-04-01T03:53:22;1.20;;;0.30;;
10637;SDS011;47007;49.252;8.904;2023-04-01T03:54:05;2.78;;;0.20;;
10637;SDS011;47007;49.252;8.904;2023-04-01T03:54:47;2.85;;;0.20;;
10637;SDS011;47007;49.252;8.904;2023-04-01T03:55:29;2.13;;;0.30;;
10637;SDS011;47007;49.252;8.904;2023-04-01T03:56:11;1.48;;;0.13;;
10637;SDS011;47007;49.252;8.904;2023-04-01T03:56:53;0.55;;;0.10;;
10637;SDS011;47007;49.252;8.904;2023-04-01T03:57:37;0.93;;;0.40;;
10637;SDS011;47007;49.252;8.904;2023-04-01T03:58:28;1.13;;;0.10;;
10637;SDS011;47007;49.252;8.904;2023-04-01T03:59:11;1.17;;;0.20;;
10637;SDS011;47007;49.252;8.904;2023-04-01T03:59:53;0.77;;;0.15;;
10637;SDS011;47007;49.252;8.904;2023-04-01T04:00:35;0.90;;;0.10;;
10637;SDS011;47007;49.252;8.904;2023-04-01T04:01:18;1.58;;;0.20;;
10637;SDS011;47007;49.252;8.904;2023-04-01T04:02:08;0.75;;;0.10;;
10637;SDS011;47007;49.252;8.904;2023-04-01T04:02:50;0.70;;;0.22;;
10637;SDS011;47007;49.252;8.904;2023-04-01T04:03:38;0.65;;;0.20;;
10637;SDS011;47007;49.252;8.904;2023-04-01T04:04:20;1.33;;;0.43;;
10637;SDS011;47007;49.252;8.904;2023-04-01T04:05:02;2.13;;;0.10;;
10637;SDS011;47007;49.252;8.904;2023-04-01T04:05:47;0.65;;;0.20;;
10637;SDS011;47007;49.252;8.904;2023-04-01T04:06:30;0.85;;;0.20;;
10637;SDS011;47007;49.252;8.904;2023-04-01T04:07:12;0.90;;;0.20;;
10637;SDS011;47007;49.252;8.904;2023-04-01T04:08:19;1.40;;;0.10;;
10637;SDS011;47007;49.252;8.904;2023-04-01T04:09:03;1.50;;;0.20;;
10637;SDS011;47007;49.252;8.904;2023-04-01T04:09:45;1.90;;;0.20;;
10637;SDS011;47007;49.252;8.904;2023-04-01T04:10:27;2.25;;;0.30;;
10637;SDS011;47007;49.252;8.904;2023-04-01T04:11:10;0.50;;;0.05;;
10637;SDS011;47007;49.252;8.904;2023-04-01T04:11:55;1.30;;;0.20;;
10637;SDS011;47007;49.252;8.904;2023-04-01T04:12:37;0.82;;;0.10;;
10637;SDS011;47007;49.252;8.904;2023-04-01T04:13:18;0.55;;;0.10;;
10637;SDS011;47007;49.252;8.904;2023-04-01T04:14:08;1.27;;;0.20;;
10637;SDS011;47007;49.252;8.904;2023-04-01T04:14:49;1.50;;;0.30;;
10637;SDS011;47007;49.252;8.904;2023-04-01T04:15:31;0.75;;;0.32;;
10637;SDS011;47007;49.252;8.904;2023-04-01T04:16:14;0.30;;;0.10;;
10637;SDS011;47007;49.252;8.904;2023-04-01T04:17:01;0.55;;;0.10;;
10637;SDS011;47007;49.252;8.904;2023-04-01T04:17:43;1.55;;;0.20;;
10637;SDS011;47007;49.252;8.904;2023-04-01T04:18:28;1.25;;;0.10;;
10637;SDS011;47007;49.252;8.904;2023-04-01T04:19:10;1.58;;;0.20;;
10637;SDS011;47007;49.252;8.904;2023-04-01T04:19:52;1.48;;;0.20;;
10637;SDS011;47007;49.252;8.904;2023-04-01T04:20:34;2.33;;;0.13;;
10637;SDS011;47007;49.252;8.904;2023-04-01T04:21:17;3.35;;;0.30;;
10637;SDS011;47007;49.252;8.904;2023-04-01T04:21:59;1.20;;;0.20;;
10637;SDS011;47007;49.252;8.904;2023-04-01T04:22:43;3.15;;;0.25;;
10637;SDS011;47007;49.252;8.904;2023-04-01T04:23:24;0.40;;;0.10;;
10637;SDS011;47007;49.252;8.904;2023-04-01T04:24:06;2.05;;;0.20;;
10637;SDS011;47007;49.252;8.904;2023-04-01T04:25:09;0.57;;;0.10;;
10637;SDS011;47007;49.252;8.904;2023-04-01T04:26:37;0.30;;;0.10;;
10637;SDS011;47007;49.252;8.904;2023-04-01T04:27:19;1.33;;;0.25;;
10637;SDS011;47007;49.252;8.904;2023-04-01T04:28:12;0.80;;;0.10;;
10637;SDS011;47007;49.252;8.904;2023-04-01T04:28:54;0.95;;;0.10;;
10637;SDS011;47007;49.252;8.904;2023-04-01T04:29:36;1.38;;;0.10;;
10637;SDS011;47007;49.252;8.904;2023-04-01T04:30:18;2.28;;;0.17;;
10637;SDS011;47007;49.252;8.904;2023-04-01T04:31:00;0.65;;;0.10;;
10637;SDS011;47007;49.252;8.904;2023-04-01T04:31:44;2.22;;;0.13;;
10637;SDS011;47007;49.252;8.904;2023-04-01T04:32:26;0.90;;;0.10;;
10637;SDS011;47007;49.252;8.904;2023-04-01T04:33:10;1.40;;;0.20;;
10637;SDS011;47007;49.252;8.904;2023-04-01T04:33:52;0.55;;;0.13;;
10637;SDS011;47007;49.252;8.904;2023-04-01T04:34:34;0.80;;;0.10;;
10637;SDS011;47007;49.252;8.904;2023-04-01T04:35:16;1.65;;;0.10;;
10637;SDS011;47007;49.252;8.904;2023-04-01T04:35:59;2.15;;;0.20;;
10637;SDS011;47007;49.252;8.904;2023-04-01T04:36:43;0.25;;;0.10;;
10637;SDS011;47007;49.252;8.904;2023-04-01T04:37:26;1.42;;;0.20;;
10637;SDS011;47007;49.252;8.904;2023-04-01T04:38:08;0.60;;;0.15;;
10637;SDS011;47007;49.252;8.904;2023-04-01T04:38:49;0.80;;;0.10;;
10637;SDS011;47007;49.252;8.904;2023-04-01T04:39:32;1.35;;;0.10;;
10637;SDS011;47007;49.252;8.904;2023-04-01T04:40:13;0.93;;;0.20;;
10637;SDS011;47007;49.252;8.904;2023-04-01T04:40:56;0.90;;;0.10;;
10637;SDS011;47007;49.252;8.904;2023-04-01T04:41:39;1.67;;;0.13;;
10637;SDS011;47007;49.252;8.904;2023-04-01T04:42:22;0.93;;;0.20;;
10637;SDS011;47007;49.252;8.904;2023-04-01T04:43:10;2.00;;;0.20;;
10637;SDS011;47007;49.252;8.904;2023-04-01T04:43:54;0.22;;;0.10;;
10637;SDS011;47007;49.252;8.904;2023-04-01T04:44:38;1.55;;;0.10;;
10637;SDS011;47007;49.252;8.904;2023-04-01T04:45:20;1.30;;;0.32;;
10637;SDS011;47007;49.252;8.904;2023-04-01T04:46:08;1.00;;;0.20;;
10637;SDS011;47007;49.252;8.904;2023-04-01T04:46:52;1.48;;;0.17;;
10637;SDS011;47007;49.252;8.904;2023-04-01T04:47:34;2.58;;;0.20;;
10637;SDS011;47007;49.252;8.904;2023-04-01T04:48:16;1.38;;;0.20;;